createdAt,value
2022-11-02T00:01:44.749Z,65.29
2022-11-02T00:04:11.537Z,66.11
2022-11-02T00:06:38.190Z,66.41
2022-11-02T00:09:04.982Z,65.24
2022-11-02T00:11:31.784Z,64.57
2022-11-02T00:13:59.797Z,64.17
2022-11-02T00:16:26.683Z,64.19
2022-11-02T00:18:57.997Z,64.73
2022-11-02T00:21:27.347Z,65.16
2022-11-02T00:23:56.013Z,64.76
2022-11-02T00:26:22.820Z,64.98
2022-11-02T00:28:49.780Z,65.46
2022-11-02T00:31:18.060Z,64.95
2022-11-02T00:33:47.050Z,64.67
2022-11-02T00:36:14.152Z,64.85
2022-11-02T00:38:40.817Z,65.22
2022-11-02T00:41:07.509Z,65.29
2022-11-02T00:43:34.170Z,65.54
2022-11-02T00:46:01.724Z,65.65
2022-11-02T00:48:28.654Z,65.01
2022-11-02T00:50:55.676Z,64.99
2022-11-02T00:53:25.201Z,65.97
2022-11-02T00:55:54.144Z,64.90
2022-11-02T00:58:21.249Z,65.11
2022-11-02T01:00:49.742Z,65.05
2022-11-02T01:03:16.326Z,65.25
2022-11-02T01:05:42.970Z,64.59
2022-11-02T01:08:09.880Z,64.96
2022-11-02T01:10:36.492Z,65.66
2022-11-02T01:13:03.208Z,66.56
2022-11-02T01:15:30.053Z,66.00
2022-11-02T01:17:58.392Z,65.45
2022-11-02T01:20:27.055Z,65.21
2022-11-02T01:22:53.743Z,65.01
2022-11-02T01:25:20.268Z,64.71
2022-11-02T01:27:46.953Z,64.54
2022-11-02T01:30:13.992Z,65.33
2022-11-02T01:32:40.673Z,65.08
2022-11-02T01:35:07.649Z,64.85
2022-11-02T01:37:35.223Z,65.06
2022-11-02T01:40:02.219Z,64.91
2022-11-02T01:42:29.045Z,65.58
2022-11-02T01:44:56.280Z,65.66
2022-11-02T01:47:31.501Z,65.81
2022-11-02T01:50:10.306Z,65.97
2022-11-02T01:52:37.935Z,65.96
2022-11-02T01:55:19.499Z,66.22
2022-11-02T01:57:51.281Z,67.21
2022-11-02T02:00:18.848Z,65.97
2022-11-02T02:02:55.099Z,65.67
2022-11-02T02:05:24.391Z,65.86
2022-11-02T02:07:52.071Z,65.55
2022-11-02T02:10:19.358Z,65.63
2022-11-02T02:12:47.279Z,66.45
2022-11-02T02:15:17.517Z,64.72
2022-11-02T02:18:02.480Z,64.15
2022-11-02T02:20:44.737Z,64.88
2022-11-02T02:23:23.567Z,64.77
2022-11-02T02:26:10.208Z,65.13
2022-11-02T02:28:53.424Z,65.03
2022-11-02T02:31:30.666Z,65.06
2022-11-02T02:34:06.924Z,64.96
2022-11-02T02:37:07.003Z,64.56
2022-11-02T02:39:37.004Z,66.23
2022-11-02T02:42:19.935Z,65.06
2022-11-02T02:45:01.617Z,64.80
2022-11-02T02:47:33.257Z,64.54
2022-11-02T02:50:14.557Z,64.71
2022-11-02T02:52:43.246Z,64.76
2022-11-02T02:55:18.361Z,65.94
2022-11-02T02:57:46.844Z,65.31
2022-11-02T03:00:18.189Z,66.23
2022-11-02T03:03:01.161Z,65.38
2022-11-02T03:05:28.215Z,64.45
2022-11-02T03:07:55.311Z,65.15
2022-11-02T03:10:42.183Z,65.78
2022-11-02T03:13:18.717Z,65.67
2022-11-02T03:16:07.374Z,65.50
2022-11-02T03:18:58.332Z,64.85
2022-11-02T03:21:43.529Z,66.32
2022-11-02T03:24:38.512Z,68.73
2022-11-02T03:27:27.866Z,67.96
2022-11-02T03:29:57.838Z,66.71
2022-11-02T03:32:39.335Z,66.73
2022-11-02T03:35:15.852Z,66.13
2022-11-02T03:37:52.426Z,65.82
2022-11-02T03:40:26.747Z,65.97
2022-11-02T03:42:56.178Z,66.49
2022-11-02T03:45:27.741Z,66.41
2022-11-02T03:48:01.252Z,66.07
2022-11-02T03:50:29.690Z,64.49
2022-11-02T03:53:01.569Z,65.21
2022-11-02T03:55:36.712Z,65.29
2022-11-02T03:58:04.437Z,65.36
2022-11-02T04:00:36.325Z,65.74
2022-11-02T04:03:08.125Z,65.55
2022-11-02T04:05:40.184Z,65.16
2022-11-02T04:08:34.510Z,65.23
2022-11-02T04:11:24.844Z,66.15
2022-11-02T04:14:12.292Z,66.75
2022-11-02T04:16:41.658Z,66.43
2022-11-02T04:19:29.383Z,68.62
2022-11-02T04:22:20.835Z,68.71
2022-11-02T04:25:10.408Z,69.66
2022-11-02T04:27:38.179Z,69.03
2022-11-02T04:30:05.600Z,68.29
2022-11-02T04:33:01.512Z,69.32
2022-11-02T04:35:34.182Z,69.17
2022-11-02T04:38:20.392Z,69.10
2022-11-02T04:40:47.626Z,68.09
2022-11-02T04:43:14.486Z,67.30
2022-11-02T04:45:41.525Z,67.00
2022-11-02T04:48:09.807Z,68.82
2022-11-02T04:50:37.766Z,68.90
2022-11-02T04:53:07.327Z,67.48
2022-11-02T04:55:35.270Z,68.01
2022-11-02T04:58:02.954Z,69.02
2022-11-02T05:00:30.167Z,68.51
2022-11-02T05:02:58.050Z,71.30
2022-11-02T05:05:25.936Z,71.58
2022-11-02T05:07:55.859Z,72.13
2022-11-02T05:10:23.144Z,72.66
2022-11-02T05:13:00.194Z,70.92
2022-11-02T05:15:31.454Z,72.69
2022-11-02T05:18:00.911Z,71.95
2022-11-02T05:20:29.866Z,71.44
2022-11-02T05:22:57.534Z,69.79
2022-11-02T05:25:24.858Z,68.56
2022-11-02T05:27:52.017Z,68.33
2022-11-02T05:30:19.445Z,68.87
2022-11-02T05:32:46.183Z,67.72
2022-11-02T05:35:13.548Z,66.21
2022-11-02T05:37:40.296Z,65.11
2022-11-02T05:40:08.772Z,64.40
2022-11-02T05:42:36.329Z,63.88
2022-11-02T05:45:03.077Z,63.59
2022-11-02T05:47:29.695Z,64.32
2022-11-02T05:49:56.333Z,65.27
2022-11-02T05:52:23.145Z,65.35
2022-11-02T05:54:49.829Z,67.06
2022-11-02T05:57:17.250Z,66.38
2022-11-02T05:59:46.689Z,67.50
2022-11-02T06:02:16.221Z,67.90
2022-11-02T06:04:42.904Z,70.18
2022-11-02T06:07:09.709Z,68.80
2022-11-02T06:09:36.711Z,68.12
2022-11-02T06:12:03.591Z,67.57
2022-11-02T06:14:30.425Z,67.53
2022-11-02T06:16:57.579Z,67.35
2022-11-02T06:19:24.370Z,66.52
2022-11-02T06:21:51.076Z,67.17
2022-11-02T06:24:17.822Z,67.74
2022-11-02T06:26:46.803Z,68.98
2022-11-02T06:29:13.683Z,69.69
2022-11-02T06:31:40.578Z,69.66
2022-11-02T06:34:07.626Z,70.09
2022-11-02T06:36:34.307Z,71.16
2022-11-02T06:39:01.036Z,72.10
2022-11-02T06:41:27.634Z,72.06
2022-11-02T06:43:54.341Z,71.88
2022-11-02T06:46:21.938Z,72.04
2022-11-02T06:48:48.766Z,71.83
2022-11-02T06:51:15.534Z,71.64
2022-11-02T06:53:42.165Z,72.06
2022-11-02T06:56:09.512Z,71.54
2022-11-02T06:58:36.288Z,71.16
2022-11-02T07:01:07.328Z,70.93
2022-11-02T07:03:34.854Z,70.81
2022-11-02T07:06:02.764Z,70.85
2022-11-02T07:08:29.638Z,69.67
2022-11-02T07:10:56.863Z,69.54
2022-11-02T07:13:23.938Z,69.20
2022-11-02T07:15:54.535Z,69.08
2022-11-02T07:18:22.181Z,68.23
2022-11-02T07:20:48.976Z,68.54
2022-11-02T07:23:15.638Z,68.07
2022-11-02T07:25:42.499Z,68.31
2022-11-02T07:28:10.913Z,67.45
2022-11-02T07:30:37.599Z,66.70
2022-11-02T07:33:04.648Z,67.79
2022-11-02T07:35:34.154Z,67.71
2022-11-02T07:38:04.126Z,67.64
2022-11-02T07:40:32.623Z,67.07
2022-11-02T07:42:59.699Z,67.27
2022-11-02T07:45:34.996Z,66.38
2022-11-02T07:48:01.732Z,65.88
2022-11-02T07:50:28.620Z,65.53
2022-11-02T07:52:57.867Z,64.80
2022-11-02T07:55:27.777Z,66.63
2022-11-02T07:58:02.500Z,67.03
2022-11-02T08:00:35.671Z,65.55
2022-11-02T08:03:03.922Z,63.22
2022-11-02T08:05:33.724Z,62.55
2022-11-02T08:08:02.451Z,61.91
2022-11-02T08:10:35.336Z,61.62
2022-11-02T08:13:06.888Z,61.12
2022-11-02T08:15:34.250Z,60.64
2022-11-02T08:18:12.192Z,61.13
2022-11-02T08:20:39.139Z,61.51
2022-11-02T08:23:07.607Z,60.35
2022-11-02T08:25:34.853Z,60.19
2022-11-02T08:28:02.471Z,60.71
2022-11-02T08:30:30.893Z,60.48
2022-11-02T08:33:13.188Z,60.64
2022-11-02T08:35:40.643Z,60.84
2022-11-02T08:38:09.375Z,61.56
2022-11-02T08:40:37.111Z,61.66
2022-11-02T08:43:08.921Z,61.40
2022-11-02T08:46:12.764Z,61.74
2022-11-02T08:48:23.726Z,60.33
2022-11-02T08:50:50.657Z,59.20
2022-11-02T08:53:17.346Z,60.33
2022-11-02T08:55:44.144Z,60.10
2022-11-02T08:58:10.916Z,58.61
2022-11-02T09:00:37.596Z,61.13
2022-11-02T09:03:12.732Z,60.42
2022-11-02T09:05:42.774Z,60.20
2022-11-02T09:08:28.573Z,59.02
2022-11-02T09:11:02.248Z,58.79
2022-11-02T09:13:29.781Z,57.30
2022-11-02T09:15:58.620Z,57.86
2022-11-02T09:18:25.488Z,57.14
2022-11-02T09:20:52.406Z,56.80
2022-11-02T09:23:20.605Z,56.16
2022-11-02T09:25:48.343Z,56.34
2022-11-02T09:28:15.836Z,56.03
2022-11-02T09:30:43.248Z,55.71
2022-11-02T09:33:10.258Z,56.31
2022-11-02T09:35:43.470Z,56.42
2022-11-02T09:38:11.621Z,55.76
2022-11-02T09:40:41.574Z,57.44
2022-11-02T09:43:14.166Z,58.13
2022-11-02T09:46:21.552Z,57.60
2022-11-02T09:48:56.500Z,56.82
2022-11-02T09:51:26.160Z,56.88
2022-11-02T09:54:02.738Z,56.99
2022-11-02T09:56:31.660Z,56.95
2022-11-02T09:59:02.395Z,56.79
2022-11-02T10:01:33.080Z,56.41
2022-11-02T10:04:19.383Z,54.48
2022-11-02T10:06:56.251Z,54.90
2022-11-02T10:09:35.620Z,53.27
2022-11-02T10:12:23.608Z,52.92
2022-11-02T10:15:02.118Z,54.26
2022-11-02T10:17:33.453Z,52.47
2022-11-02T10:20:05.709Z,52.57
2022-11-02T10:22:41.258Z,51.99
2022-11-02T10:25:12.038Z,52.00
2022-11-02T10:27:40.103Z,51.60
2022-11-02T10:30:19.524Z,51.55
2022-11-02T10:32:50.859Z,52.51
2022-11-02T10:35:57.592Z,52.26
2022-11-02T10:38:52.560Z,53.56
2022-11-02T10:41:19.197Z,53.10
2022-11-02T10:43:59.149Z,52.59
2022-11-02T10:46:38.718Z,53.23
2022-11-02T10:49:30.134Z,53.19
2022-11-02T10:51:57.305Z,53.04
2022-11-02T10:54:34.194Z,54.57
2022-11-02T10:57:12.333Z,54.02
2022-11-02T10:59:39.523Z,52.93
2022-11-02T11:02:14.195Z,52.41
2022-11-02T11:04:42.107Z,51.40
2022-11-02T11:07:16.905Z,51.76
2022-11-02T11:09:57.083Z,52.71
2022-11-02T11:12:31.936Z,52.68
2022-11-02T11:20:39.726Z,52.68
2022-11-02T11:23:10.038Z,52.88
2022-11-02T11:25:36.892Z,53.21
2022-11-02T11:28:22.953Z,52.87
2022-11-02T11:31:04.247Z,52.79
2022-11-02T11:33:33.136Z,51.91
2022-11-02T11:36:00.513Z,51.53
2022-11-02T11:38:27.858Z,52.19
2022-11-02T11:40:59.412Z,51.99
2022-11-02T11:43:33.967Z,52.53
2022-11-02T11:46:06.291Z,51.80
2022-11-02T11:48:36.252Z,53.01
2022-11-02T11:51:04.448Z,52.91
2022-11-02T11:53:31.845Z,53.00
2022-11-02T11:56:01.434Z,52.19
2022-11-02T11:58:33.568Z,52.49
2022-11-02T12:01:12.486Z,53.23
2022-11-02T12:04:01.419Z,52.36
2022-11-02T12:06:46.448Z,52.32
2022-11-02T12:09:31.196Z,52.94
2022-11-02T12:12:19.724Z,52.48
2022-11-02T12:14:55.185Z,52.52
2022-11-02T12:17:45.085Z,52.08
2022-11-02T12:20:30.655Z,51.22
2022-11-02T12:23:39.291Z,50.86
2022-11-02T12:26:30.061Z,50.82
2022-11-02T12:29:24.264Z,50.91
2022-11-02T12:32:06.130Z,51.50
2022-11-02T12:38:01.175Z,51.43
2022-11-02T12:40:49.254Z,50.83
2022-11-02T12:43:39.044Z,50.51
2022-11-02T12:46:37.942Z,50.74
2022-11-02T12:49:27.795Z,51.05
2022-11-02T12:52:08.954Z,51.75
2022-11-02T12:54:52.106Z,51.55
2022-11-02T12:57:23.565Z,51.13
2022-11-02T13:00:08.278Z,50.71
2022-11-02T13:02:38.357Z,50.90
2022-11-02T13:05:23.884Z,51.27
2022-11-02T13:07:55.493Z,51.00
2022-11-02T13:10:30.841Z,50.50
2022-11-02T13:13:01.393Z,50.38
2022-11-02T13:15:32.072Z,50.91
2022-11-02T13:18:19.351Z,50.32
2022-11-02T13:20:52.098Z,51.83
2022-11-02T13:23:34.648Z,50.53
2022-11-02T13:26:07.770Z,49.74
2022-11-02T13:28:46.821Z,49.84
2022-11-02T13:31:41.643Z,50.73
2022-11-02T13:34:32.710Z,50.91
2022-11-02T13:37:07.528Z,50.21
2022-11-02T13:39:46.826Z,50.79
2022-11-02T13:42:28.621Z,50.60
2022-11-02T13:45:20.584Z,51.08
2022-11-02T13:48:11.903Z,50.49
2022-11-02T13:50:50.974Z,50.86
2022-11-02T13:53:32.983Z,51.05
2022-11-02T13:56:04.476Z,50.98
2022-11-02T13:58:37.414Z,50.97
2022-11-02T14:01:07.972Z,51.63
2022-11-02T14:04:07.902Z,49.97
2022-11-02T14:06:46.831Z,51.13
2022-11-02T14:09:29.024Z,51.69
2022-11-02T14:12:21.688Z,51.14
2022-11-02T14:15:13.498Z,51.43
2022-11-02T14:17:56.324Z,51.75
2022-11-02T14:20:40.033Z,51.00
2022-11-02T14:23:09.894Z,51.04
2022-11-02T14:25:45.682Z,51.79
2022-11-02T14:28:30.215Z,52.13
2022-11-02T14:31:05.973Z,51.88
2022-11-02T14:33:51.670Z,52.10
2022-11-02T14:36:18.404Z,52.25
2022-11-02T14:38:59.544Z,52.99
2022-11-02T14:41:34.955Z,52.44
2022-11-02T14:44:25.404Z,51.77
2022-11-02T14:46:56.885Z,52.28
2022-11-02T14:49:28.699Z,52.24
2022-11-02T14:52:04.581Z,51.95
2022-11-02T14:54:34.796Z,52.33
2022-11-02T14:57:07.610Z,52.43
2022-11-02T14:59:40.756Z,52.17
2022-11-02T15:02:22.523Z,52.79
2022-11-02T15:04:52.377Z,51.91
2022-11-02T15:07:35.381Z,52.17
2022-11-02T15:10:17.419Z,52.55
2022-11-02T15:12:46.594Z,52.70
2022-11-02T15:15:34.714Z,52.08
2022-11-02T15:18:23.286Z,53.13
2022-11-02T15:21:12.296Z,53.32
2022-11-02T15:24:04.634Z,54.12
2022-11-02T15:26:42.431Z,54.35
2022-11-02T15:29:37.064Z,53.90
2022-11-02T15:32:09.969Z,54.08
2022-11-02T15:34:41.647Z,54.08
2022-11-02T15:37:12.951Z,54.83
2022-11-02T15:39:39.687Z,54.75
2022-11-02T15:42:22.530Z,54.84
2022-11-02T15:44:54.813Z,54.82
2022-11-02T15:48:03.700Z,55.07
2022-11-02T15:50:39.444Z,55.77
2022-11-02T15:53:23.192Z,55.84
2022-11-02T15:55:51.582Z,55.97
2022-11-02T15:58:42.343Z,55.82
2022-11-02T16:01:27.151Z,55.56
2022-11-02T16:04:04.917Z,55.15
2022-11-02T16:06:36.706Z,55.48
2022-11-02T16:09:23.246Z,55.36
2022-11-02T16:12:13.562Z,55.65
2022-11-02T16:14:40.858Z,55.46
2022-11-02T16:17:28.066Z,55.77
2022-11-02T16:20:16.792Z,55.16
2022-11-02T16:22:53.916Z,55.39
2022-11-02T16:25:38.524Z,55.35
2022-11-02T16:28:32.537Z,55.89
2022-11-02T16:31:00.363Z,56.10
2022-11-02T16:33:31.915Z,56.85
2022-11-02T16:36:00.507Z,57.65
2022-11-02T16:38:28.851Z,57.65
2022-11-02T16:40:55.957Z,57.43
2022-11-02T16:43:26.135Z,57.62
2022-11-02T16:46:00.866Z,58.24
2022-11-02T16:48:29.915Z,58.97
2022-11-02T16:51:14.882Z,58.47
2022-11-02T16:53:43.195Z,57.91
2022-11-02T16:56:32.302Z,58.08
2022-11-02T16:59:03.968Z,58.22
2022-11-02T17:01:38.964Z,58.91
2022-11-02T17:04:24.147Z,58.93
2022-11-02T17:06:54.788Z,58.82
2022-11-02T17:09:28.207Z,58.27
2022-11-02T17:11:58.271Z,58.89
2022-11-02T17:14:26.749Z,57.80
2022-11-02T17:17:02.657Z,57.74
2022-11-02T17:19:38.420Z,58.50
2022-11-02T17:22:26.919Z,58.20
2022-11-02T17:25:27.368Z,58.29
2022-11-02T17:27:55.748Z,57.58
2022-11-02T17:30:34.489Z,56.42
2022-11-02T17:33:27.008Z,57.00
2022-11-02T17:35:58.211Z,58.19
2022-11-02T17:38:27.322Z,57.40
2022-11-02T17:40:54.945Z,57.49
2022-11-02T17:43:23.813Z,55.99
2022-11-02T17:45:55.800Z,58.32
2022-11-02T17:48:33.570Z,57.87
2022-11-02T17:51:00.375Z,57.73
2022-11-02T17:53:27.417Z,55.83
2022-11-02T17:55:55.772Z,55.45
2022-11-02T17:58:22.407Z,55.58
2022-11-02T18:00:49.306Z,55.30
2022-11-02T18:03:19.265Z,56.23
2022-11-02T18:05:50.046Z,55.54
2022-11-02T18:08:19.011Z,56.39
2022-11-02T18:10:47.633Z,55.54
2022-11-02T18:13:17.708Z,57.09
2022-11-02T18:15:45.206Z,57.67
2022-11-02T18:18:12.151Z,58.32
2022-11-02T18:20:41.815Z,57.92
2022-11-02T18:23:16.771Z,57.72
2022-11-02T18:25:43.571Z,58.81
2022-11-02T18:28:10.500Z,58.41
2022-11-02T18:30:37.183Z,59.24
2022-11-02T18:33:03.880Z,59.38
2022-11-02T18:35:30.472Z,58.09
2022-11-02T18:37:57.066Z,58.09
2022-11-02T18:40:23.652Z,59.29
2022-11-02T18:42:50.461Z,60.01
2022-11-02T18:45:17.239Z,60.38
2022-11-02T18:47:44.104Z,61.54
2022-11-02T18:50:12.848Z,63.70
2022-11-02T18:52:41.841Z,60.90
2022-11-02T18:55:09.962Z,58.15
2022-11-02T18:57:36.568Z,57.67
2022-11-02T19:00:04.097Z,58.92
2022-11-02T19:02:30.910Z,59.94
2022-11-02T19:04:57.552Z,62.70
2022-11-02T19:07:42.895Z,63.41
2022-11-02T19:10:10.025Z,64.44
2022-11-02T19:12:37.248Z,64.34
2022-11-02T19:15:04.993Z,61.80
2022-11-02T19:17:31.699Z,60.81
2022-11-02T19:19:58.199Z,59.85
2022-11-02T19:22:26.284Z,59.66
2022-11-02T19:24:53.022Z,59.39
2022-11-02T19:27:25.055Z,61.54
2022-11-02T19:29:52.891Z,61.35
2022-11-02T19:32:20.415Z,61.26
2022-11-02T19:34:47.183Z,62.11
2022-11-02T19:37:14.081Z,62.20
2022-11-02T19:39:40.942Z,61.28
2022-11-02T19:42:07.783Z,59.98
2022-11-02T19:44:42.203Z,60.14
2022-11-02T19:47:10.107Z,59.41
2022-11-02T19:49:36.806Z,59.33
2022-11-02T19:52:03.571Z,59.38
2022-11-02T19:54:30.252Z,59.57
2022-11-02T19:56:56.863Z,60.07
2022-11-02T19:59:23.633Z,60.30
2022-11-02T20:01:51.045Z,60.40
2022-11-02T20:04:18.196Z,61.42
2022-11-02T20:06:44.892Z,61.67
2022-11-02T20:09:16.990Z,60.91
2022-11-02T20:11:47.047Z,61.30
2022-11-02T20:14:15.678Z,61.56
2022-11-02T20:16:42.430Z,60.58
2022-11-02T20:19:09.560Z,61.26
2022-11-02T20:21:42.676Z,61.38
2022-11-02T20:24:10.736Z,61.93
2022-11-02T20:26:39.051Z,61.93
2022-11-02T20:29:06.877Z,61.56
2022-11-02T20:31:37.055Z,61.38
2022-11-02T20:34:06.903Z,60.79
2022-11-02T20:36:35.861Z,61.67
2022-11-02T20:39:07.458Z,61.39
2022-11-02T20:41:34.582Z,60.79
2022-11-02T20:44:01.310Z,60.78
2022-11-02T20:46:40.012Z,60.49
2022-11-02T20:49:20.723Z,60.54
2022-11-02T20:51:52.445Z,60.79
2022-11-02T20:54:19.930Z,61.19
2022-11-02T20:56:47.370Z,61.63
2022-11-02T20:59:14.427Z,62.59
2022-11-02T21:01:41.379Z,61.66
2022-11-02T21:04:08.501Z,61.27
2022-11-02T21:06:34.978Z,61.06
2022-11-02T21:09:03.360Z,61.08
2022-11-02T21:11:50.688Z,60.85
2022-11-02T21:14:17.333Z,61.28
2022-11-02T21:16:44.029Z,61.78
2022-11-02T21:19:10.642Z,62.51
2022-11-02T21:21:37.143Z,62.98
2022-11-02T21:24:04.318Z,63.17
2022-11-02T21:26:30.954Z,62.78
2022-11-02T21:28:57.489Z,62.22
2022-11-02T21:31:24.164Z,62.61
2022-11-02T21:33:51.187Z,62.33
2022-11-02T21:36:21.738Z,62.41
2022-11-02T21:38:52.612Z,62.46
2022-11-02T21:41:21.704Z,62.00
2022-11-02T21:43:52.127Z,61.66
2022-11-02T21:46:19.934Z,61.34
2022-11-02T21:48:46.919Z,61.18
2022-11-02T21:51:18.586Z,60.77
2022-11-02T21:53:46.864Z,62.88
2022-11-02T21:56:19.293Z,63.40
2022-11-02T21:58:47.547Z,63.14
2022-11-02T22:01:39.587Z,62.60
2022-11-02T22:04:07.462Z,63.61
2022-11-02T22:06:34.697Z,64.15
2022-11-02T22:09:02.116Z,63.13
2022-11-02T22:11:29.098Z,64.08
2022-11-02T22:13:58.975Z,64.08
2022-11-02T22:16:35.103Z,65.22
2022-11-02T22:19:05.320Z,63.29
2022-11-02T22:21:34.147Z,64.01
2022-11-02T22:24:01.175Z,63.09
2022-11-02T22:26:29.831Z,63.06
2022-11-02T22:29:02.855Z,62.25
2022-11-02T22:31:35.625Z,61.50
2022-11-02T22:34:03.159Z,61.76
2022-11-02T22:36:33.054Z,64.73
2022-11-02T22:39:00.981Z,63.36
2022-11-02T22:41:30.545Z,61.65
2022-11-02T22:44:02.116Z,61.74
2022-11-02T22:46:30.821Z,60.96
2022-11-02T22:48:58.894Z,61.54
2022-11-02T22:51:27.796Z,61.70
2022-11-02T22:53:54.811Z,61.62
2022-11-02T22:56:23.530Z,62.25
2022-11-02T22:58:50.601Z,61.56
2022-11-02T23:01:22.520Z,63.76
2022-11-02T23:03:49.851Z,64.11
2022-11-02T23:06:18.438Z,64.90
2022-11-02T23:08:46.120Z,64.78
2022-11-02T23:11:23.949Z,65.22
2022-11-02T23:14:05.926Z,65.18
2022-11-02T23:16:35.200Z,63.53
2022-11-02T23:19:27.062Z,64.69
2022-11-02T23:22:20.676Z,64.83
2022-11-02T23:25:07.113Z,64.51
2022-11-02T23:27:56.504Z,65.07
2022-11-02T23:30:42.848Z,65.43
2022-11-02T23:33:09.609Z,65.31
2022-11-02T23:35:55.431Z,64.45
2022-11-02T23:38:22.165Z,66.01
2022-11-02T23:40:48.667Z,66.13
2022-11-02T23:43:15.310Z,65.47
2022-11-02T23:45:41.901Z,65.96
2022-11-02T23:48:09.139Z,66.09
2022-11-02T23:50:55.131Z,65.21
2022-11-02T23:53:41.991Z,64.43
2022-11-02T23:56:34.960Z,64.88
2022-11-02T23:59:07.637Z,64.99
